createdAt,value
2023-04-11T00:00:29.925Z,87.66
2023-04-11T00:03:00.303Z,87.78
2023-04-11T00:05:33.410Z,88.40
2023-04-11T00:07:59.805Z,88.54
2023-04-11T00:10:26.193Z,88.23
2023-04-11T00:12:56.471Z,88.79
2023-04-11T00:15:26.875Z,89.06
2023-04-11T00:17:54.924Z,89.08
2023-04-11T00:20:21.660Z,89.38
2023-04-11T00:22:48.244Z,89.88
2023-04-11T00:25:15.293Z,90.20
2023-04-11T00:27:41.638Z,90.15
2023-04-11T00:30:08.456Z,90.02
2023-04-11T00:32:34.816Z,90.53
2023-04-11T00:35:04.627Z,90.93
2023-04-11T00:37:36.108Z,90.42
2023-04-11T00:40:05.690Z,90.26
2023-04-11T00:42:32.698Z,91.25
2023-04-11T00:44:59.046Z,91.25
2023-04-11T00:47:25.823Z,90.73
2023-04-11T00:49:52.324Z,90.71
2023-04-11T00:52:19.405Z,91.67
2023-04-11T00:54:46.721Z,91.44
2023-04-11T00:57:13.313Z,91.40
2023-04-11T00:59:41.581Z,90.88
2023-04-11T01:02:08.238Z,91.15
2023-04-11T01:04:34.953Z,90.88
2023-04-11T01:07:06.297Z,91.17
2023-04-11T01:09:35.464Z,90.94
2023-04-11T01:12:03.961Z,91.18
2023-04-11T01:14:30.619Z,91.29
2023-04-11T01:16:58.164Z,91.39
2023-04-11T01:19:29.256Z,91.17
2023-04-11T01:21:57.825Z,90.22
2023-04-11T01:24:24.457Z,90.22
2023-04-11T01:26:50.852Z,90.42
2023-04-11T01:29:17.502Z,89.74
2023-04-11T01:31:44.029Z,89.66
2023-04-11T01:34:13.877Z,89.77
2023-04-11T01:36:42.007Z,89.51
2023-04-11T01:39:08.561Z,88.29
2023-04-11T01:41:35.898Z,87.57
2023-04-11T01:44:04.120Z,88.16
2023-04-11T01:46:30.962Z,87.34
2023-04-11T01:48:58.559Z,87.60
2023-04-11T01:51:25.173Z,87.82
2023-04-11T01:53:51.573Z,87.30
2023-04-11T01:56:17.951Z,86.71
2023-04-11T01:58:44.439Z,87.06
2023-04-11T02:01:13.180Z,86.43
2023-04-11T02:03:39.703Z,86.70
2023-04-11T02:06:06.448Z,87.26
2023-04-11T02:08:32.915Z,86.98
2023-04-11T02:10:59.308Z,86.90
2023-04-11T02:13:25.778Z,86.65
2023-04-11T02:15:52.163Z,87.35
2023-04-11T02:18:18.565Z,87.64
2023-04-11T02:20:45.063Z,86.67
2023-04-11T02:23:12.728Z,88.20
2023-04-11T02:25:39.306Z,87.64
2023-04-11T02:28:07.967Z,87.53
2023-04-11T02:30:34.743Z,87.25
2023-04-11T02:33:01.691Z,86.47
2023-04-11T02:35:28.152Z,86.45
2023-04-11T02:37:54.528Z,85.76
2023-04-11T02:40:20.903Z,85.29
2023-04-11T02:42:47.376Z,84.46
2023-04-11T02:45:13.752Z,85.17
2023-04-11T02:47:40.293Z,84.64
2023-04-11T02:50:07.478Z,84.44
2023-04-11T02:52:34.133Z,84.13
2023-04-11T02:55:00.604Z,83.58
2023-04-11T02:57:27.727Z,83.28
2023-04-11T02:59:54.123Z,82.80
2023-04-11T03:02:23.488Z,83.12
2023-04-11T03:04:51.156Z,83.65
2023-04-11T03:07:17.550Z,83.07
2023-04-11T03:09:44.116Z,83.28
2023-04-11T03:12:10.489Z,82.96
2023-04-11T03:14:36.911Z,83.10
2023-04-11T03:17:03.290Z,82.94
2023-04-11T03:19:29.804Z,83.54
2023-04-11T03:21:56.457Z,83.13
2023-04-11T03:24:22.838Z,83.36
2023-04-11T03:26:49.198Z,83.49
2023-04-11T03:29:16.599Z,84.07
2023-04-11T03:31:43.227Z,84.12
2023-04-11T03:34:09.712Z,84.98
2023-04-11T03:36:36.123Z,84.07
2023-04-11T03:39:02.913Z,84.55
2023-04-11T03:41:29.471Z,84.14
2023-04-11T03:43:55.892Z,84.18
2023-04-11T03:46:22.273Z,83.76
2023-04-11T03:48:48.663Z,83.75
2023-04-11T03:51:15.449Z,83.45
2023-04-11T03:53:41.827Z,83.89
2023-04-11T03:56:08.974Z,82.99
2023-04-11T03:58:36.070Z,82.64
2023-04-11T04:01:02.733Z,83.24
2023-04-11T04:03:29.384Z,82.89
2023-04-11T04:05:55.870Z,83.33
2023-04-11T04:08:22.238Z,83.15
2023-04-11T04:10:48.754Z,82.70
2023-04-11T04:13:15.266Z,83.37
2023-04-11T04:15:42.408Z,83.45
2023-04-11T04:18:08.912Z,83.47
2023-04-11T04:20:35.342Z,83.34
2023-04-11T04:23:04.671Z,82.85
2023-04-11T04:25:31.120Z,83.64
2023-04-11T04:27:58.187Z,83.02
2023-04-11T04:30:28.756Z,83.30
2023-04-11T04:32:58.971Z,83.60
2023-04-11T04:35:26.555Z,83.02
2023-04-11T04:37:54.084Z,82.79
2023-04-11T04:40:20.713Z,82.76
2023-04-11T04:42:58.083Z,83.15
2023-04-11T04:45:26.253Z,82.54
2023-04-11T04:47:52.832Z,82.75
2023-04-11T04:50:20.372Z,83.01
2023-04-11T04:52:47.122Z,82.17
2023-04-11T04:55:14.478Z,82.64
2023-04-11T04:57:40.826Z,82.45
2023-04-11T05:00:11.559Z,82.90
2023-04-11T05:02:38.180Z,82.15
2023-04-11T05:05:05.204Z,82.06
2023-04-11T05:07:31.814Z,82.20
2023-04-11T05:09:58.291Z,82.22
2023-04-11T05:12:27.136Z,82.04
2023-04-11T05:14:55.377Z,81.73
2023-04-11T05:17:23.943Z,81.77
2023-04-11T05:19:51.783Z,81.86
2023-04-11T05:22:18.253Z,81.01
2023-04-11T05:24:44.658Z,81.64
2023-04-11T05:27:11.009Z,81.03
2023-04-11T05:29:37.349Z,81.06
2023-04-11T05:32:03.914Z,80.74
2023-04-11T05:34:32.688Z,80.31
2023-04-11T05:36:59.097Z,80.88
2023-04-11T05:39:25.709Z,80.53
2023-04-11T05:41:52.094Z,80.84
2023-04-11T05:44:18.547Z,80.19
2023-04-11T05:46:44.898Z,80.40
2023-04-11T05:49:11.659Z,80.51
2023-04-11T05:51:38.123Z,80.41
2023-04-11T05:54:04.613Z,80.48
2023-04-11T05:56:31.026Z,81.05
2023-04-11T05:58:57.395Z,81.14
2023-04-11T06:01:23.906Z,80.88
2023-04-11T06:03:50.492Z,80.66
2023-04-11T06:06:17.381Z,80.60
2023-04-11T06:08:44.210Z,80.76
2023-04-11T06:11:11.215Z,79.99
2023-04-11T06:13:37.704Z,80.46
2023-04-11T06:16:06.498Z,80.67
2023-04-11T06:18:32.997Z,80.82
2023-04-11T06:20:59.463Z,79.74
2023-04-11T06:23:25.886Z,80.10
2023-04-11T06:25:52.972Z,79.74
2023-04-11T06:28:19.405Z,80.01
2023-04-11T06:30:45.894Z,80.09
2023-04-11T06:33:12.497Z,80.59
2023-04-11T06:35:39.025Z,79.82
2023-04-11T06:38:05.485Z,79.30
2023-04-11T06:40:31.947Z,79.52
2023-04-11T06:43:00.114Z,79.62
2023-04-11T06:45:26.691Z,79.22
2023-04-11T06:47:53.233Z,78.94
2023-04-11T06:50:19.801Z,78.75
2023-04-11T06:52:46.200Z,78.28
2023-04-11T06:55:15.378Z,78.00
2023-04-11T06:57:43.104Z,78.34
2023-04-11T07:00:12.232Z,78.20
2023-04-11T07:02:39.382Z,77.43
2023-04-11T07:05:06.587Z,78.24
2023-04-11T07:07:33.020Z,77.08
2023-04-11T07:09:59.499Z,77.19
2023-04-11T07:12:25.901Z,76.81
2023-04-11T07:14:52.360Z,77.30
2023-04-11T07:17:18.764Z,75.82
2023-04-11T07:19:45.187Z,76.67
2023-04-11T07:22:11.553Z,77.09
2023-04-11T07:24:37.956Z,76.05
2023-04-11T07:27:04.758Z,75.84
2023-04-11T07:29:31.696Z,76.01
2023-04-11T07:31:58.234Z,75.28
2023-04-11T07:34:24.763Z,74.98
2023-04-11T07:36:51.267Z,74.81
2023-04-11T07:39:17.755Z,75.48
2023-04-11T07:41:44.862Z,74.32
2023-04-11T07:44:11.459Z,73.50
2023-04-11T07:46:37.826Z,73.72
2023-04-11T07:49:04.481Z,72.92
2023-04-11T07:51:31.289Z,72.80
2023-04-11T07:53:57.904Z,72.87
2023-04-11T07:56:24.447Z,73.03
2023-04-11T07:58:50.914Z,72.38
2023-04-11T08:01:25.469Z,72.39
2023-04-11T08:03:53.567Z,71.89
2023-04-11T08:06:20.450Z,71.38
2023-04-11T08:08:47.876Z,70.42
2023-04-11T08:11:14.699Z,68.94
2023-04-11T08:13:42.177Z,70.29
2023-04-11T08:16:10.886Z,68.94
2023-04-11T08:18:37.524Z,69.37
2023-04-11T08:21:04.024Z,69.20
2023-04-11T08:23:30.470Z,67.71
2023-04-11T08:25:56.919Z,65.97
2023-04-11T08:28:23.930Z,66.31
2023-04-11T08:30:55.249Z,64.92
2023-04-11T08:33:25.041Z,64.64
2023-04-11T08:35:51.590Z,64.25
2023-04-11T08:38:18.209Z,64.67
2023-04-11T08:40:44.580Z,62.72
2023-04-11T08:43:12.391Z,61.95
2023-04-11T08:45:42.266Z,61.88
2023-04-11T08:48:09.368Z,63.00
2023-04-11T08:50:35.986Z,61.53
2023-04-11T08:53:03.756Z,61.19
2023-04-11T08:55:31.056Z,60.23
2023-04-11T08:57:59.351Z,60.85
2023-04-11T09:00:28.807Z,61.11
2023-04-11T09:03:00.903Z,61.40
2023-04-11T09:05:29.768Z,61.24
2023-04-11T09:07:58.873Z,59.94
2023-04-11T09:10:26.684Z,58.00
2023-04-11T09:12:56.608Z,57.36
2023-04-11T09:15:28.270Z,58.54
2023-04-11T09:17:58.223Z,57.78
2023-04-11T09:20:27.163Z,58.12
2023-04-11T09:22:54.130Z,57.56
2023-04-11T09:25:23.045Z,56.60
2023-04-11T09:27:50.834Z,57.29
2023-04-11T09:30:26.878Z,58.23
2023-04-11T09:32:54.239Z,58.05
2023-04-11T09:35:24.078Z,56.56
2023-04-11T09:37:58.435Z,57.07
2023-04-11T09:40:27.006Z,55.95
2023-04-11T09:43:01.335Z,55.30
2023-04-11T09:45:32.162Z,54.56
2023-04-11T09:48:02.449Z,55.11
2023-04-11T09:50:29.073Z,54.53
2023-04-11T09:52:58.513Z,54.33
2023-04-11T09:55:25.902Z,55.21
2023-04-11T09:57:54.143Z,54.34
2023-04-11T10:00:24.100Z,55.02
2023-04-11T10:02:53.630Z,55.08
2023-04-11T10:05:25.962Z,53.69
2023-04-11T10:08:02.522Z,55.26
2023-04-11T10:10:29.514Z,54.55
2023-04-11T10:12:56.026Z,56.95
2023-04-11T10:15:22.942Z,55.78
2023-04-11T10:18:12.209Z,55.47
2023-04-11T10:20:50.105Z,56.06
2023-04-11T10:23:16.817Z,55.79
2023-04-11T10:26:00.005Z,55.54
2023-04-11T10:28:30.903Z,55.14
2023-04-11T10:31:09.856Z,54.17
2023-04-11T10:33:38.133Z,53.67
2023-04-11T10:36:06.175Z,53.04
2023-04-11T10:38:41.503Z,54.12
2023-04-11T10:41:25.006Z,53.91
2023-04-11T10:43:52.058Z,52.30
2023-04-11T10:46:22.841Z,54.26
2023-04-11T10:49:03.575Z,53.65
2023-04-11T10:51:31.631Z,52.04
2023-04-11T10:54:02.784Z,53.36
2023-04-11T10:56:48.842Z,53.55
2023-04-11T10:59:36.314Z,52.88
2023-04-11T11:02:03.076Z,52.20
2023-04-11T11:04:33.911Z,51.30
2023-04-11T11:07:01.804Z,51.19
2023-04-11T11:09:28.773Z,50.89
2023-04-11T11:12:08.461Z,51.03
2023-04-11T11:14:35.649Z,51.69
2023-04-11T11:17:03.084Z,51.02
2023-04-11T11:19:31.104Z,51.17
2023-04-11T11:22:03.412Z,50.89
2023-04-11T11:24:30.918Z,50.81
2023-04-11T11:26:58.189Z,49.06
2023-04-11T11:29:34.041Z,50.11
2023-04-11T11:32:03.580Z,50.88
2023-04-11T11:34:31.773Z,50.55
2023-04-11T11:36:59.566Z,49.90
2023-04-11T11:39:26.654Z,49.92
2023-04-11T11:41:53.629Z,49.74
2023-04-11T11:44:28.753Z,48.68
2023-04-11T11:47:02.227Z,48.10
2023-04-11T11:49:52.547Z,47.24
2023-04-11T11:52:43.488Z,48.60
2023-04-11T11:55:32.060Z,48.88
2023-04-11T11:58:01.283Z,48.09
2023-04-11T12:00:29.088Z,47.67
2023-04-11T12:02:56.894Z,49.46
2023-04-11T12:05:33.206Z,49.56
2023-04-11T12:08:05.225Z,49.73
2023-04-11T12:10:40.522Z,49.83
2023-04-11T12:13:25.491Z,49.73
2023-04-11T12:15:55.642Z,48.50
2023-04-11T12:18:27.713Z,47.88
2023-04-11T12:20:54.369Z,49.27
2023-04-11T12:23:22.573Z,48.36
2023-04-11T12:25:48.967Z,48.53
2023-04-11T12:28:15.704Z,45.61
2023-04-11T12:30:42.169Z,46.76
2023-04-11T12:33:08.865Z,45.21
2023-04-11T12:35:35.326Z,45.56
2023-04-11T12:38:01.894Z,45.04
2023-04-11T12:40:29.769Z,45.14
2023-04-11T12:42:57.462Z,45.73
2023-04-11T12:45:25.006Z,45.15
2023-04-11T12:47:52.075Z,45.62
2023-04-11T12:50:18.747Z,45.17
2023-04-11T12:52:45.419Z,43.40
2023-04-11T12:55:12.990Z,45.06
2023-04-11T12:57:39.641Z,45.22
2023-04-11T13:00:07.760Z,42.94
2023-04-11T13:02:42.221Z,43.44
2023-04-11T13:05:14.101Z,45.64
2023-04-11T13:07:41.153Z,44.47
2023-04-11T13:10:08.274Z,45.12
2023-04-11T13:12:39.832Z,44.75
2023-04-11T13:15:08.124Z,45.01
2023-04-11T13:17:36.920Z,44.94
2023-04-11T13:20:10.713Z,44.92
2023-04-11T13:22:38.508Z,44.44
2023-04-11T13:25:05.844Z,42.40
2023-04-11T13:27:32.275Z,41.56
2023-04-11T13:29:58.781Z,43.27
2023-04-11T13:32:25.567Z,42.30
2023-04-11T13:34:52.153Z,41.76
2023-04-11T13:37:18.655Z,41.85
2023-04-11T13:39:45.024Z,42.43
2023-04-11T13:42:12.609Z,41.52
2023-04-11T13:44:38.999Z,41.97
2023-04-11T13:47:05.567Z,40.82
2023-04-11T13:49:31.938Z,41.98
2023-04-11T13:51:58.341Z,42.18
2023-04-11T13:54:24.722Z,42.35
2023-04-11T13:56:51.125Z,43.80
2023-04-11T13:59:17.485Z,41.82
2023-04-11T14:01:44.203Z,41.75
2023-04-11T14:04:10.740Z,41.67
2023-04-11T14:06:37.550Z,41.05
2023-04-11T14:09:05.521Z,41.53
2023-04-11T14:11:32.166Z,42.76
2023-04-11T14:13:58.789Z,42.44
2023-04-11T14:16:25.392Z,43.16
2023-04-11T14:18:51.748Z,41.64
2023-04-11T14:21:18.243Z,42.59
2023-04-11T14:23:44.644Z,42.11
2023-04-11T14:26:11.096Z,42.69
2023-04-11T14:28:37.634Z,42.22
2023-04-11T14:31:04.268Z,41.07
2023-04-11T14:33:31.444Z,42.00
2023-04-11T14:35:57.838Z,41.88
2023-04-11T14:38:24.245Z,41.30
2023-04-11T14:40:50.702Z,42.72
2023-04-11T14:43:17.298Z,42.88
2023-04-11T14:45:43.795Z,44.37
2023-04-11T14:48:10.419Z,43.13
2023-04-11T14:50:36.888Z,43.78
2023-04-11T14:53:03.418Z,43.72
2023-04-11T14:55:29.837Z,44.85
2023-04-11T14:57:56.591Z,44.72
2023-04-11T15:00:24.702Z,44.53
2023-04-11T15:02:53.893Z,43.82
2023-04-11T15:05:22.399Z,44.87
2023-04-11T15:07:50.478Z,44.88
2023-04-11T15:10:22.285Z,44.19
2023-04-11T15:12:49.792Z,43.64
2023-04-11T15:15:16.385Z,44.97
2023-04-11T15:17:48.155Z,43.93
2023-04-11T15:20:15.958Z,44.61
2023-04-11T15:22:44.493Z,45.19
2023-04-11T15:25:13.083Z,43.48
2023-04-11T15:27:40.064Z,43.85
2023-04-11T15:30:07.416Z,43.49
2023-04-11T15:32:34.386Z,44.28
2023-04-11T15:35:00.970Z,43.74
2023-04-11T15:37:27.638Z,44.15
2023-04-11T15:39:54.283Z,45.44
2023-04-11T15:42:20.904Z,45.01
2023-04-11T15:44:47.341Z,44.82
2023-04-11T15:47:13.872Z,44.04
2023-04-11T15:49:40.969Z,43.34
2023-04-11T15:52:07.401Z,44.37
2023-04-11T15:54:33.908Z,45.83
2023-04-11T15:57:01.753Z,45.60
2023-04-11T15:59:28.197Z,46.07
2023-04-11T16:01:54.753Z,46.43
2023-04-11T16:04:21.315Z,45.30
2023-04-11T16:06:47.868Z,42.90
2023-04-11T16:09:14.357Z,43.64
2023-04-11T16:11:41.136Z,42.26
2023-04-11T16:14:07.515Z,43.09
2023-04-11T16:16:34.054Z,44.43
2023-04-11T16:19:00.563Z,44.76
2023-04-11T16:21:27.183Z,43.85
2023-04-11T16:23:54.818Z,44.06
2023-04-11T16:26:21.445Z,44.13
2023-04-11T16:28:48.795Z,45.36
2023-04-11T16:31:21.516Z,45.62
2023-04-11T16:33:47.994Z,46.38
2023-04-11T16:36:14.401Z,46.66
2023-04-11T16:38:40.961Z,45.76
2023-04-11T16:41:07.421Z,47.07
2023-04-11T16:43:33.862Z,46.16
2023-04-11T16:46:00.554Z,46.59
2023-04-11T16:48:27.093Z,47.43
2023-04-11T16:50:53.606Z,48.34
2023-04-11T16:53:20.042Z,49.63
2023-04-11T16:55:46.417Z,49.28
2023-04-11T16:58:12.874Z,50.04
2023-04-11T17:00:39.270Z,50.45
2023-04-11T17:03:05.858Z,51.94
2023-04-11T17:05:34.170Z,52.70
2023-04-11T17:08:00.818Z,52.63
2023-04-11T17:10:27.230Z,51.16
2023-04-11T17:12:54.558Z,50.99
2023-04-11T17:15:21.017Z,51.54
2023-04-11T17:17:47.539Z,53.00
2023-04-11T17:20:14.911Z,52.71
2023-04-11T17:22:43.160Z,53.44
2023-04-11T17:25:10.270Z,54.73
2023-04-11T17:27:36.656Z,54.63
2023-04-11T17:30:04.040Z,53.95
2023-04-11T17:32:30.568Z,54.51
2023-04-11T17:34:56.936Z,56.11
2023-04-11T17:37:23.453Z,55.69
2023-04-11T17:39:49.854Z,56.31
2023-04-11T17:42:16.238Z,57.41
2023-04-11T17:44:42.680Z,56.26
2023-04-11T17:47:09.058Z,56.13
2023-04-11T17:49:48.705Z,56.63
2023-04-11T17:52:15.083Z,57.35
2023-04-11T17:54:45.448Z,58.39
2023-04-11T17:57:13.031Z,58.81
2023-04-11T17:59:40.808Z,58.70
2023-04-11T18:02:09.545Z,59.47
2023-04-11T18:04:36.226Z,59.94
2023-04-11T18:07:03.765Z,60.67
2023-04-11T18:09:31.845Z,60.52
2023-04-11T18:12:05.545Z,61.52
2023-04-11T18:14:33.916Z,61.03
2023-04-11T18:17:04.491Z,62.12
2023-04-11T18:19:34.096Z,62.18
2023-04-11T18:22:00.594Z,62.42
2023-04-11T18:24:31.690Z,62.59
2023-04-11T18:27:01.270Z,63.30
2023-04-11T18:29:27.680Z,62.83
2023-04-11T18:32:21.201Z,62.99
2023-04-11T18:34:44.186Z,63.21
2023-04-11T18:37:11.056Z,62.45
2023-04-11T18:39:38.263Z,62.19
2023-04-11T18:42:05.240Z,62.60
2023-04-11T18:44:32.443Z,63.22
2023-04-11T18:47:02.046Z,63.51
2023-04-11T18:49:31.774Z,64.32
2023-04-11T18:51:58.630Z,64.60
2023-04-11T18:54:25.466Z,64.37
2023-04-11T18:56:53.871Z,63.26
2023-04-11T18:59:28.808Z,63.00
2023-04-11T19:01:59.312Z,62.91
2023-04-11T19:04:26.539Z,62.38
2023-04-11T19:06:53.515Z,61.90
2023-04-11T19:09:21.518Z,63.36
2023-04-11T19:11:49.137Z,62.67
2023-04-11T19:14:18.985Z,62.90
2023-04-11T19:16:46.833Z,61.44
2023-04-11T19:19:13.813Z,62.06
2023-04-11T19:21:42.081Z,62.21
2023-04-11T19:24:09.786Z,62.06
2023-04-11T19:26:52.914Z,62.28
2023-04-11T19:29:19.401Z,63.14
2023-04-11T19:31:45.966Z,63.05
2023-04-11T19:34:12.798Z,62.56
2023-04-11T19:36:39.548Z,61.89
2023-04-11T19:39:06.424Z,62.38
2023-04-11T19:41:32.815Z,62.47
2023-04-11T19:43:59.548Z,62.76
2023-04-11T19:46:25.996Z,61.78
2023-04-11T19:48:52.525Z,62.27
2023-04-11T19:51:18.950Z,62.42
2023-04-11T19:53:45.957Z,63.19
2023-04-11T19:56:12.454Z,62.88
2023-04-11T19:58:40.048Z,63.22
2023-04-11T20:01:07.335Z,62.87
2023-04-11T20:03:34.539Z,62.88
2023-04-11T20:06:02.909Z,63.60
2023-04-11T20:08:33.303Z,63.49
2023-04-11T20:10:59.860Z,63.55
2023-04-11T20:13:26.323Z,63.92
2023-04-11T20:15:52.754Z,64.17
2023-04-11T20:18:19.189Z,64.05
2023-04-11T20:20:45.633Z,63.91
2023-04-11T20:23:15.888Z,63.75
2023-04-11T20:25:42.759Z,64.17
2023-04-11T20:28:09.687Z,63.67
2023-04-11T20:30:38.567Z,63.68
2023-04-11T20:33:05.152Z,64.02
2023-04-11T20:35:31.638Z,64.02
2023-04-11T20:37:58.260Z,64.49
2023-04-11T20:40:24.701Z,64.14
2023-04-11T20:42:51.272Z,64.44
2023-04-11T20:45:21.664Z,64.46
2023-04-11T20:47:50.142Z,64.14
2023-04-11T20:50:17.574Z,64.57
2023-04-11T20:52:46.533Z,64.83
2023-04-11T20:55:16.423Z,64.80
2023-04-11T20:57:42.942Z,64.84
2023-04-11T21:00:16.955Z,65.04
2023-04-11T21:02:45.717Z,65.38
2023-04-11T21:05:13.543Z,65.17
2023-04-11T21:07:42.016Z,64.99
2023-04-11T21:10:09.492Z,65.06
2023-04-11T21:12:36.210Z,64.89
2023-04-11T21:15:03.675Z,65.23
2023-04-11T21:17:34.297Z,65.38
2023-04-11T21:20:01.741Z,65.09
2023-04-11T21:22:28.123Z,65.61
2023-04-11T21:24:54.535Z,65.91
2023-04-11T21:27:21.094Z,65.92
2023-04-11T21:29:47.531Z,65.81
2023-04-11T21:32:13.910Z,65.82
2023-04-11T21:34:40.424Z,65.65
2023-04-11T21:37:06.803Z,65.74
2023-04-11T21:39:33.200Z,66.19
2023-04-11T21:42:00.229Z,66.17
2023-04-11T21:44:26.718Z,66.34
2023-04-11T21:46:53.241Z,67.05
2023-04-11T21:49:19.724Z,66.33
2023-04-11T21:51:46.107Z,66.63
2023-04-11T21:54:12.482Z,66.72
2023-04-11T21:56:38.898Z,66.77
2023-04-11T21:59:05.496Z,66.98
2023-04-11T22:01:31.916Z,66.86
2023-04-11T22:03:59.145Z,67.68
2023-04-11T22:06:26.613Z,67.85
2023-04-11T22:08:53.039Z,67.68
2023-04-11T22:11:20.347Z,68.14
2023-04-11T22:13:46.956Z,68.54
2023-04-11T22:16:14.174Z,68.84
2023-04-11T22:18:49.826Z,69.50
2023-04-11T22:21:19.689Z,69.88
2023-04-11T22:23:54.703Z,69.75
2023-04-11T22:26:35.032Z,69.95
2023-04-11T22:29:05.478Z,70.56
2023-04-11T22:31:38.328Z,69.86
2023-04-11T22:34:05.371Z,70.95
2023-04-11T22:36:35.783Z,71.09
2023-04-11T22:39:05.907Z,71.85
2023-04-11T22:41:33.210Z,71.77
2023-04-11T22:44:00.849Z,72.15
2023-04-11T22:46:30.938Z,72.88
2023-04-11T22:49:00.220Z,73.11
2023-04-11T22:51:30.034Z,73.10
2023-04-11T22:53:57.123Z,73.63
2023-04-11T22:56:23.753Z,74.27
2023-04-11T22:58:50.195Z,74.35
2023-04-11T23:01:17.576Z,74.87
2023-04-11T23:03:44.021Z,74.65
2023-04-11T23:06:10.942Z,74.45
2023-04-11T23:08:37.448Z,74.79
2023-04-11T23:11:04.169Z,75.58
2023-04-11T23:13:30.587Z,75.50
2023-04-11T23:15:57.005Z,75.46
2023-04-11T23:18:23.365Z,76.01
2023-04-11T23:20:50.734Z,76.26
2023-04-11T23:23:18.339Z,76.17
2023-04-11T23:25:45.425Z,76.33
2023-04-11T23:28:12.270Z,76.12
2023-04-11T23:30:39.164Z,75.85
2023-04-11T23:33:08.942Z,76.58
2023-04-11T23:35:35.886Z,76.36
2023-04-11T23:38:03.186Z,76.78
2023-04-11T23:40:30.500Z,76.99
2023-04-11T23:42:59.878Z,76.98
2023-04-11T23:45:26.429Z,77.24
2023-04-11T23:47:53.070Z,77.83
2023-04-11T23:50:19.539Z,78.62
2023-04-11T23:52:46.857Z,78.74
2023-04-11T23:55:13.614Z,78.78
2023-04-11T23:57:39.991Z,79.08
